sensor_id;sensor_type;location;lat;lon;timestamp;pressure;altitude;pressure_sealevel;temperature;humidity
73245;BME280;61460;41.158;-73.238;2023-05-10T00:00:50;101518.84;;;25.86;31.11
73245;BME280;61460;41.158;-73.238;2023-05-10T00:03:20;101518.44;;;25.82;31.02
73245;BME280;61460;41.158;-73.238;2023-05-10T00:05:51;101521.41;;;25.74;31.04
73245;BME280;61460;41.158;-73.238;2023-05-10T00:08:21;101529.35;;;25.68;30.99
73245;BME280;61460;41.158;-73.238;2023-05-10T00:10:52;101535.33;;;25.58;31.13
73245;BME280;61460;41.158;-73.238;2023-05-10T00:13:22;101536.93;;;25.58;30.83
73245;BME280;61460;41.158;-73.238;2023-05-10T00:15:53;101545.26;;;25.53;30.84
73245;BME280;61460;41.158;-73.238;2023-05-10T00:18:23;101544.55;;;25.57;30.82
73245;BME280;61460;41.158;-73.238;2023-05-10T00:20:54;101545.61;;;25.57;31.27
73245;BME280;61460;41.158;-73.238;2023-05-10T00:23:24;101555.56;;;25.56;31.08
73245;BME280;61460;41.158;-73.238;2023-05-10T00:25:54;101561.72;;;25.58;31.03
73245;BME280;61460;41.158;-73.238;2023-05-10T00:28:25;101565.93;;;25.52;31.46
73245;BME280;61460;41.158;-73.238;2023-05-10T00:30:55;101562.58;;;25.54;31.66
73245;BME280;61460;41.158;-73.238;2023-05-10T00:33:25;101567.84;;;25.47;32.55
73245;BME280;61460;41.158;-73.238;2023-05-10T00:35:56;101573.04;;;25.54;32.81
73245;BME280;61460;41.158;-73.238;2023-05-10T00:38:27;101589.74;;;25.52;33.11
73245;BME280;61460;41.158;-73.238;2023-05-10T00:40:57;101600.29;;;25.50;33.28
73245;BME280;61460;41.158;-73.238;2023-05-10T00:43:28;101606.30;;;25.55;32.85
73245;BME280;61460;41.158;-73.238;2023-05-10T00:45:58;101613.41;;;25.47;33.92
73245;BME280;61460;41.158;-73.238;2023-05-10T00:48:29;101621.48;;;25.53;32.94
73245;BME280;61460;41.158;-73.238;2023-05-10T00:50:59;101631.31;;;25.46;34.37
73245;BME280;61460;41.158;-73.238;2023-05-10T00:53:31;101641.35;;;25.53;33.96
73245;BME280;61460;41.158;-73.238;2023-05-10T00:56:01;101647.78;;;25.65;34.52
73245;BME280;61460;41.158;-73.238;2023-05-10T00:58:30;101653.70;;;25.56;35.76
73245;BME280;61460;41.158;-73.238;2023-05-10T01:01:00;101654.54;;;25.68;35.33
73245;BME280;61460;41.158;-73.238;2023-05-10T01:03:31;101666.12;;;25.73;34.81
73245;BME280;61460;41.158;-73.238;2023-05-10T01:06:01;101671.79;;;25.58;34.25
73245;BME280;61460;41.158;-73.238;2023-05-10T01:08:32;101674.44;;;25.65;35.63
73245;BME280;61460;41.158;-73.238;2023-05-10T01:11:02;101680.03;;;25.47;34.90
73245;BME280;61460;41.158;-73.238;2023-05-10T01:13:34;101681.13;;;25.16;34.34
73245;BME280;61460;41.158;-73.238;2023-05-10T01:16:02;101676.87;;;24.96;34.52
73245;BME280;61460;41.158;-73.238;2023-05-10T01:18:36;101674.75;;;24.68;35.00
73245;BME280;61460;41.158;-73.238;2023-05-10T01:21:14;101677.59;;;24.58;34.51
73245;BME280;61460;41.158;-73.238;2023-05-10T01:23:48;101683.85;;;24.72;34.85
73245;BME280;61460;41.158;-73.238;2023-05-10T01:31:17;101700.98;;;24.41;35.15
73245;BME280;61460;41.158;-73.238;2023-05-10T01:33:40;101705.69;;;24.42;35.21
73245;BME280;61460;41.158;-73.238;2023-05-10T01:36:12;101709.68;;;24.46;36.03
73245;BME280;61460;41.158;-73.238;2023-05-10T01:38:42;101717.45;;;24.49;35.53
73245;BME280;61460;41.158;-73.238;2023-05-10T01:41:12;101728.37;;;24.54;35.84
73245;BME280;61460;41.158;-73.238;2023-05-10T01:43:44;101733.34;;;24.48;35.84
73245;BME280;61460;41.158;-73.238;2023-05-10T01:46:20;101734.49;;;24.51;35.76
73245;BME280;61460;41.158;-73.238;2023-05-10T01:48:44;101745.76;;;24.43;35.66
73245;BME280;61460;41.158;-73.238;2023-05-10T01:51:10;101751.74;;;24.43;35.32
73245;BME280;61460;41.158;-73.238;2023-05-10T01:53:42;101766.94;;;24.32;36.34
73245;BME280;61460;41.158;-73.238;2023-05-10T01:56:11;101767.97;;;24.28;35.78
73245;BME280;61460;41.158;-73.238;2023-05-10T01:58:43;101771.66;;;24.28;35.42
73245;BME280;61460;41.158;-73.238;2023-05-10T02:01:12;101773.85;;;24.34;35.55
73245;BME280;61460;41.158;-73.238;2023-05-10T02:03:43;101774.78;;;24.30;35.85
73245;BME280;61460;41.158;-73.238;2023-05-10T02:06:15;101781.70;;;24.30;35.58
73245;BME280;61460;41.158;-73.238;2023-05-10T02:08:44;101787.23;;;24.20;35.14
73245;BME280;61460;41.158;-73.238;2023-05-10T02:11:14;101781.00;;;24.26;35.29
73245;BME280;61460;41.158;-73.238;2023-05-10T02:13:45;101784.30;;;24.15;35.85
73245;BME280;61460;41.158;-73.238;2023-05-10T02:16:16;101791.20;;;24.26;36.14
73245;BME280;61460;41.158;-73.238;2023-05-10T02:18:46;101792.85;;;24.06;36.18
73245;BME280;61460;41.158;-73.238;2023-05-10T02:21:17;101795.25;;;24.22;34.56
73245;BME280;61460;41.158;-73.238;2023-05-10T02:23:46;101800.54;;;24.12;36.00
73245;BME280;61460;41.158;-73.238;2023-05-10T02:26:17;101807.52;;;23.91;36.08
73245;BME280;61460;41.158;-73.238;2023-05-10T02:28:47;101808.83;;;23.70;35.20
73245;BME280;61460;41.158;-73.238;2023-05-10T02:31:18;101814.50;;;23.57;35.74
73245;BME280;61460;41.158;-73.238;2023-05-10T02:33:48;101816.60;;;23.60;34.29
73245;BME280;61460;41.158;-73.238;2023-05-10T02:36:19;101811.97;;;23.48;35.44
73245;BME280;61460;41.158;-73.238;2023-05-10T02:38:49;101814.06;;;23.41;35.45
73245;BME280;61460;41.158;-73.238;2023-05-10T02:41:20;101818.14;;;23.31;36.26
73245;BME280;61460;41.158;-73.238;2023-05-10T02:43:51;101822.40;;;23.24;36.02
73245;BME280;61460;41.158;-73.238;2023-05-10T02:46:20;101819.81;;;23.21;35.58
73245;BME280;61460;41.158;-73.238;2023-05-10T02:48:50;101824.26;;;23.14;35.37
73245;BME280;61460;41.158;-73.238;2023-05-10T02:51:24;101826.96;;;23.02;36.91
73245;BME280;61460;41.158;-73.238;2023-05-10T02:53:53;101833.51;;;23.13;37.40
73245;BME280;61460;41.158;-73.238;2023-05-10T02:56:25;101838.14;;;23.30;34.53
73245;BME280;61460;41.158;-73.238;2023-05-10T02:58:53;101834.73;;;23.11;35.81
73245;BME280;61460;41.158;-73.238;2023-05-10T03:01:24;101835.31;;;22.97;35.35
73245;BME280;61460;41.158;-73.238;2023-05-10T03:03:54;101842.82;;;22.96;36.11
73245;BME280;61460;41.158;-73.238;2023-05-10T03:06:25;101855.39;;;22.95;37.02
73245;BME280;61460;41.158;-73.238;2023-05-10T03:08:55;101861.76;;;22.98;37.39
73245;BME280;61460;41.158;-73.238;2023-05-10T03:11:37;101858.90;;;23.09;37.36
73245;BME280;61460;41.158;-73.238;2023-05-10T03:14:07;101856.65;;;23.08;37.50
73245;BME280;61460;41.158;-73.238;2023-05-10T03:16:32;101857.47;;;23.12;37.58
73245;BME280;61460;41.158;-73.238;2023-05-10T03:19:04;101858.82;;;23.12;37.46
73245;BME280;61460;41.158;-73.238;2023-05-10T03:21:29;101863.70;;;23.24;36.98
73245;BME280;61460;41.158;-73.238;2023-05-10T03:24:05;101863.63;;;23.30;36.82
73245;BME280;61460;41.158;-73.238;2023-05-10T03:26:29;101858.63;;;23.10;37.40
73245;BME280;61460;41.158;-73.238;2023-05-10T03:28:59;101857.39;;;23.02;37.44
73245;BME280;61460;41.158;-73.238;2023-05-10T03:31:30;101860.79;;;23.08;37.16
73245;BME280;61460;41.158;-73.238;2023-05-10T03:34:00;101864.02;;;23.11;37.52
73245;BME280;61460;41.158;-73.238;2023-05-10T03:36:30;101864.60;;;23.16;37.68
73245;BME280;61460;41.158;-73.238;2023-05-10T03:39:00;101867.83;;;23.20;38.42
73245;BME280;61460;41.158;-73.238;2023-05-10T03:41:31;101878.58;;;23.32;38.88
73245;BME280;61460;41.158;-73.238;2023-05-10T03:44:01;101881.62;;;23.29;39.33
73245;BME280;61460;41.158;-73.238;2023-05-10T03:46:31;101880.37;;;23.40;39.41
73245;BME280;61460;41.158;-73.238;2023-05-10T03:49:02;101879.58;;;23.45;39.90
73245;BME280;61460;41.158;-73.238;2023-05-10T03:51:32;101880.44;;;23.45;40.08
73245;BME280;61460;41.158;-73.238;2023-05-10T03:54:02;101886.49;;;23.54;40.22
73245;BME280;61460;41.158;-73.238;2023-05-10T03:56:33;101884.50;;;23.62;40.06
73245;BME280;61460;41.158;-73.238;2023-05-10T03:59:03;101890.79;;;23.64;40.24
73245;BME280;61460;41.158;-73.238;2023-05-10T04:01:34;101893.64;;;23.69;40.24
73245;BME280;61460;41.158;-73.238;2023-05-10T04:04:04;101900.15;;;23.72;40.30
73245;BME280;61460;41.158;-73.238;2023-05-10T04:06:35;101901.99;;;23.76;40.35
73245;BME280;61460;41.158;-73.238;2023-05-10T04:09:05;101898.97;;;23.77;40.41
73245;BME280;61460;41.158;-73.238;2023-05-10T04:11:36;101900.10;;;23.82;40.44
73245;BME280;61460;41.158;-73.238;2023-05-10T04:14:06;101903.66;;;23.79;40.53
73245;BME280;61460;41.158;-73.238;2023-05-10T04:16:36;101902.53;;;23.82;40.37
73245;BME280;61460;41.158;-73.238;2023-05-10T04:19:07;101901.11;;;23.89;40.44
73245;BME280;61460;41.158;-73.238;2023-05-10T04:21:38;101903.70;;;23.85;40.53
73245;BME280;61460;41.158;-73.238;2023-05-10T04:24:08;101903.08;;;23.89;40.35
73245;BME280;61460;41.158;-73.238;2023-05-10T04:26:39;101904.27;;;23.92;40.39
73245;BME280;61460;41.158;-73.238;2023-05-10T04:29:09;101907.05;;;23.92;40.36
73245;BME280;61460;41.158;-73.238;2023-05-10T04:31:39;101908.52;;;23.89;40.49
73245;BME280;61460;41.158;-73.238;2023-05-10T04:34:11;101907.89;;;23.92;40.51
73245;BME280;61460;41.158;-73.238;2023-05-10T04:36:41;101902.98;;;23.93;40.34
73245;BME280;61460;41.158;-73.238;2023-05-10T04:39:11;101906.31;;;23.92;40.52
73245;BME280;61460;41.158;-73.238;2023-05-10T04:41:42;101900.64;;;23.93;40.32
73245;BME280;61460;41.158;-73.238;2023-05-10T04:44:13;101904.06;;;23.94;40.31
73245;BME280;61460;41.158;-73.238;2023-05-10T04:46:43;101904.37;;;23.87;40.60
73245;BME280;61460;41.158;-73.238;2023-05-10T04:49:13;101902.63;;;23.89;40.51
73245;BME280;61460;41.158;-73.238;2023-05-10T04:51:44;101904.86;;;23.89;40.61
73245;BME280;61460;41.158;-73.238;2023-05-10T04:54:14;101901.96;;;23.89;40.88
73245;BME280;61460;41.158;-73.238;2023-05-10T04:56:45;101908.08;;;23.94;40.71
73245;BME280;61460;41.158;-73.238;2023-05-10T04:59:15;101908.91;;;23.97;40.60
73245;BME280;61460;41.158;-73.238;2023-05-10T05:01:45;101908.66;;;23.95;40.45
73245;BME280;61460;41.158;-73.238;2023-05-10T05:04:16;101907.91;;;23.95;40.45
73245;BME280;61460;41.158;-73.238;2023-05-10T05:06:46;101907.83;;;24.03;40.16
73245;BME280;61460;41.158;-73.238;2023-05-10T05:09:16;101905.13;;;24.03;40.22
73245;BME280;61460;41.158;-73.238;2023-05-10T05:11:46;101905.45;;;24.02;40.17
73245;BME280;61460;41.158;-73.238;2023-05-10T05:14:17;101905.32;;;24.00;40.10
73245;BME280;61460;41.158;-73.238;2023-05-10T05:16:47;101907.17;;;23.99;40.06
73245;BME280;61460;41.158;-73.238;2023-05-10T05:19:18;101905.60;;;23.99;39.97
73245;BME280;61460;41.158;-73.238;2023-05-10T05:21:48;101902.33;;;24.01;39.81
73245;BME280;61460;41.158;-73.238;2023-05-10T05:24:18;101904.79;;;24.00;39.83
73245;BME280;61460;41.158;-73.238;2023-05-10T05:26:49;101903.14;;;24.00;39.70
73245;BME280;61460;41.158;-73.238;2023-05-10T05:29:19;101902.51;;;23.96;39.75
73245;BME280;61460;41.158;-73.238;2023-05-10T05:31:49;101903.01;;;24.03;39.65
73245;BME280;61460;41.158;-73.238;2023-05-10T05:34:20;101902.74;;;24.00;39.59
73245;BME280;61460;41.158;-73.238;2023-05-10T05:36:51;101906.11;;;24.02;39.63
73245;BME280;61460;41.158;-73.238;2023-05-10T05:39:21;101909.76;;;24.01;39.58
73245;BME280;61460;41.158;-73.238;2023-05-10T05:41:52;101910.87;;;23.99;39.50
73245;BME280;61460;41.158;-73.238;2023-05-10T05:44:22;101911.15;;;24.04;39.49
73245;BME280;61460;41.158;-73.238;2023-05-10T05:46:53;101917.38;;;24.01;39.51
73245;BME280;61460;41.158;-73.238;2023-05-10T05:49:24;101922.29;;;24.05;39.34
73245;BME280;61460;41.158;-73.238;2023-05-10T05:51:54;101924.43;;;24.01;39.38
73245;BME280;61460;41.158;-73.238;2023-05-10T05:54:24;101922.50;;;23.99;39.48
73245;BME280;61460;41.158;-73.238;2023-05-10T05:56:55;101930.74;;;24.00;39.45
73245;BME280;61460;41.158;-73.238;2023-05-10T05:59:25;101929.34;;;23.99;39.51
73245;BME280;61460;41.158;-73.238;2023-05-10T06:01:56;101933.83;;;24.00;39.41
73245;BME280;61460;41.158;-73.238;2023-05-10T06:04:26;101931.16;;;23.97;39.42
73245;BME280;61460;41.158;-73.238;2023-05-10T06:06:57;101928.32;;;24.01;39.40
73245;BME280;61460;41.158;-73.238;2023-05-10T06:09:27;101926.22;;;24.02;39.32
73245;BME280;61460;41.158;-73.238;2023-05-10T06:11:58;101936.18;;;23.93;39.41
73245;BME280;61460;41.158;-73.238;2023-05-10T06:14:28;101933.67;;;23.96;39.29
73245;BME280;61460;41.158;-73.238;2023-05-10T06:16:59;101933.33;;;23.96;39.28
73245;BME280;61460;41.158;-73.238;2023-05-10T06:19:30;101928.86;;;23.94;39.33
73245;BME280;61460;41.158;-73.238;2023-05-10T06:22:00;101925.95;;;24.00;39.25
73245;BME280;61460;41.158;-73.238;2023-05-10T06:24:30;101929.61;;;23.98;39.35
73245;BME280;61460;41.158;-73.238;2023-05-10T06:27:01;101919.74;;;24.02;39.23
73245;BME280;61460;41.158;-73.238;2023-05-10T06:29:31;101924.46;;;23.98;39.28
73245;BME280;61460;41.158;-73.238;2023-05-10T06:32:01;101923.08;;;23.96;39.37
73245;BME280;61460;41.158;-73.238;2023-05-10T06:34:32;101929.68;;;23.91;39.43
73245;BME280;61460;41.158;-73.238;2023-05-10T06:37:03;101934.34;;;23.98;39.38
73245;BME280;61460;41.158;-73.238;2023-05-10T06:39:33;101936.51;;;23.98;39.18
73245;BME280;61460;41.158;-73.238;2023-05-10T06:42:03;101938.50;;;23.97;39.19
73245;BME280;61460;41.158;-73.238;2023-05-10T06:44:34;101937.79;;;23.95;39.21
73245;BME280;61460;41.158;-73.238;2023-05-10T06:47:04;101941.28;;;23.96;39.09
73245;BME280;61460;41.158;-73.238;2023-05-10T06:49:34;101943.40;;;23.90;39.03
73245;BME280;61460;41.158;-73.238;2023-05-10T06:52:05;101948.84;;;23.98;38.92
73245;BME280;61460;41.158;-73.238;2023-05-10T06:54:35;101947.14;;;23.89;39.06
73245;BME280;61460;41.158;-73.238;2023-05-10T06:57:05;101953.16;;;23.95;39.11
73245;BME280;61460;41.158;-73.238;2023-05-10T06:59:36;101961.08;;;23.90;39.08
73245;BME280;61460;41.158;-73.238;2023-05-10T07:02:06;101970.31;;;23.91;39.18
73245;BME280;61460;41.158;-73.238;2023-05-10T07:04:37;101973.06;;;23.87;39.14
73245;BME280;61460;41.158;-73.238;2023-05-10T07:07:07;101975.08;;;23.91;39.05
73245;BME280;61460;41.158;-73.238;2023-05-10T07:09:38;101973.46;;;23.90;39.09
73245;BME280;61460;41.158;-73.238;2023-05-10T07:12:08;101974.32;;;23.83;39.09
73245;BME280;61460;41.158;-73.238;2023-05-10T07:14:38;101974.73;;;23.86;39.04
73245;BME280;61460;41.158;-73.238;2023-05-10T07:17:09;101976.61;;;23.90;39.06
73245;BME280;61460;41.158;-73.238;2023-05-10T07:19:39;101983.30;;;23.90;38.92
73245;BME280;61460;41.158;-73.238;2023-05-10T07:22:09;101985.09;;;23.90;38.81
73245;BME280;61460;41.158;-73.238;2023-05-10T07:24:40;101982.65;;;23.89;38.81
73245;BME280;61460;41.158;-73.238;2023-05-10T07:27:10;101990.26;;;23.93;38.71
73245;BME280;61460;41.158;-73.238;2023-05-10T07:29:40;101989.13;;;23.92;38.79
73245;BME280;61460;41.158;-73.238;2023-05-10T07:32:10;101987.45;;;23.88;38.79
73245;BME280;61460;41.158;-73.238;2023-05-10T07:34:41;101987.40;;;23.82;38.79
73245;BME280;61460;41.158;-73.238;2023-05-10T07:37:11;101991.79;;;23.83;38.76
73245;BME280;61460;41.158;-73.238;2023-05-10T07:39:41;101993.89;;;23.79;38.91
73245;BME280;61460;41.158;-73.238;2023-05-10T07:42:12;101992.87;;;23.75;38.82
73245;BME280;61460;41.158;-73.238;2023-05-10T07:44:43;101993.82;;;23.76;38.78
73245;BME280;61460;41.158;-73.238;2023-05-10T07:47:13;101985.70;;;23.71;38.75
73245;BME280;61460;41.158;-73.238;2023-05-10T07:49:43;101989.03;;;23.72;38.60
73245;BME280;61460;41.158;-73.238;2023-05-10T07:52:14;101986.45;;;23.71;38.54
73245;BME280;61460;41.158;-73.238;2023-05-10T07:54:44;101983.32;;;23.70;38.54
73245;BME280;61460;41.158;-73.238;2023-05-10T07:57:15;101983.21;;;23.72;38.36
73245;BME280;61460;41.158;-73.238;2023-05-10T07:59:44;101986.41;;;23.70;38.34
73245;BME280;61460;41.158;-73.238;2023-05-10T08:02:15;101984.33;;;23.71;38.24
73245;BME280;61460;41.158;-73.238;2023-05-10T08:04:45;101981.17;;;23.74;38.26
73245;BME280;61460;41.158;-73.238;2023-05-10T08:07:15;101978.11;;;23.70;38.24
73245;BME280;61460;41.158;-73.238;2023-05-10T08:09:46;101979.77;;;23.75;38.19
73245;BME280;61460;41.158;-73.238;2023-05-10T08:12:16;101984.43;;;23.66;38.29
73245;BME280;61460;41.158;-73.238;2023-05-10T08:14:46;101982.56;;;23.72;38.16
73245;BME280;61460;41.158;-73.238;2023-05-10T08:17:16;101984.09;;;23.68;38.21
73245;BME280;61460;41.158;-73.238;2023-05-10T08:19:47;101988.16;;;23.67;38.05
73245;BME280;61460;41.158;-73.238;2023-05-10T08:22:17;101996.28;;;23.71;38.10
73245;BME280;61460;41.158;-73.238;2023-05-10T08:24:47;101997.15;;;23.69;38.02
73245;BME280;61460;41.158;-73.238;2023-05-10T08:27:18;101998.78;;;23.66;38.06
73245;BME280;61460;41.158;-73.238;2023-05-10T08:29:48;101997.70;;;23.61;38.14
73245;BME280;61460;41.158;-73.238;2023-05-10T08:32:18;101997.88;;;23.64;38.15
73245;BME280;61460;41.158;-73.238;2023-05-10T08:34:49;102000.44;;;23.61;38.05
73245;BME280;61460;41.158;-73.238;2023-05-10T08:37:19;102004.01;;;23.63;38.09
73245;BME280;61460;41.158;-73.238;2023-05-10T08:39:50;102002.56;;;23.62;38.01
73245;BME280;61460;41.158;-73.238;2023-05-10T08:42:22;102006.22;;;23.56;37.95
73245;BME280;61460;41.158;-73.238;2023-05-10T08:44:52;102004.01;;;23.59;38.03
73245;BME280;61460;41.158;-73.238;2023-05-10T08:47:21;102007.16;;;23.57;38.08
73245;BME280;61460;41.158;-73.238;2023-05-10T08:49:51;102005.90;;;23.55;37.99
73245;BME280;61460;41.158;-73.238;2023-05-10T08:52:21;102008.10;;;23.59;38.08
73245;BME280;61460;41.158;-73.238;2023-05-10T08:54:52;102011.37;;;23.58;38.10
73245;BME280;61460;41.158;-73.238;2023-05-10T08:57:22;102008.40;;;23.55;38.15
73245;BME280;61460;41.158;-73.238;2023-05-10T08:59:53;102008.42;;;23.57;38.13
73245;BME280;61460;41.158;-73.238;2023-05-10T09:02:23;102006.68;;;23.53;38.26
73245;BME280;61460;41.158;-73.238;2023-05-10T09:04:53;102002.07;;;23.51;38.24
73245;BME280;61460;41.158;-73.238;2023-05-10T09:07:25;102008.55;;;23.51;38.13
73245;BME280;61460;41.158;-73.238;2023-05-10T09:09:55;102012.72;;;23.54;38.08
73245;BME280;61460;41.158;-73.238;2023-05-10T09:12:25;102013.38;;;23.55;38.28
73245;BME280;61460;41.158;-73.238;2023-05-10T09:14:56;102010.46;;;23.51;38.26
73245;BME280;61460;41.158;-73.238;2023-05-10T09:17:27;102008.38;;;23.46;38.11
73245;BME280;61460;41.158;-73.238;2023-05-10T09:19:58;102009.34;;;23.48;38.05
73245;BME280;61460;41.158;-73.238;2023-05-10T09:22:28;102016.50;;;23.51;38.05
73245;BME280;61460;41.158;-73.238;2023-05-10T09:25:04;102018.06;;;23.47;37.93
73245;BME280;61460;41.158;-73.238;2023-05-10T09:27:28;102018.72;;;23.44;38.03
73245;BME280;61460;41.158;-73.238;2023-05-10T09:29:59;102016.73;;;23.42;37.92
73245;BME280;61460;41.158;-73.238;2023-05-10T09:32:37;102022.89;;;23.38;37.88
73245;BME280;61460;41.158;-73.238;2023-05-10T09:35:06;102025.19;;;23.39;37.82
73245;BME280;61460;41.158;-73.238;2023-05-10T09:37:30;102028.98;;;23.37;37.93
73245;BME280;61460;41.158;-73.238;2023-05-10T09:40:05;102030.02;;;23.35;38.02
73245;BME280;61460;41.158;-73.238;2023-05-10T09:42:31;102029.47;;;23.40;37.79
73245;BME280;61460;41.158;-73.238;2023-05-10T09:45:03;102032.39;;;23.38;38.52
73245;BME280;61460;41.158;-73.238;2023-05-10T09:47:32;102030.18;;;23.30;39.47
73245;BME280;61460;41.158;-73.238;2023-05-10T09:50:03;102034.15;;;23.29;39.92
73245;BME280;61460;41.158;-73.238;2023-05-10T09:55:04;102041.92;;;23.37;41.07
73245;BME280;61460;41.158;-73.238;2023-05-10T09:57:34;102038.92;;;23.32;41.01
73245;BME280;61460;41.158;-73.238;2023-05-10T10:00:06;102039.48;;;23.35;41.28
73245;BME280;61460;41.158;-73.238;2023-05-10T10:02:35;102042.47;;;23.31;41.31
73245;BME280;61460;41.158;-73.238;2023-05-10T10:05:07;102046.69;;;23.30;40.65
73245;BME280;61460;41.158;-73.238;2023-05-10T10:07:36;102053.40;;;23.26;40.50
73245;BME280;61460;41.158;-73.238;2023-05-10T10:10:07;102057.41;;;23.31;40.06
73245;BME280;61460;41.158;-73.238;2023-05-10T10:12:36;102058.20;;;23.36;39.80
73245;BME280;61460;41.158;-73.238;2023-05-10T10:15:08;102062.81;;;23.39;39.83
73245;BME280;61460;41.158;-73.238;2023-05-10T10:17:37;102062.76;;;23.49;39.72
73245;BME280;61460;41.158;-73.238;2023-05-10T10:20:08;102061.24;;;23.41;39.99
73245;BME280;61460;41.158;-73.238;2023-05-10T10:22:38;102066.63;;;23.45;39.89
73245;BME280;61460;41.158;-73.238;2023-05-10T10:25:11;102069.35;;;23.46;40.04
73245;BME280;61460;41.158;-73.238;2023-05-10T10:27:47;102066.56;;;23.50;40.49
73245;BME280;61460;41.158;-73.238;2023-05-10T10:30:16;102070.62;;;23.64;40.61
73245;BME280;61460;41.158;-73.238;2023-05-10T10:35:10;102071.14;;;23.57;40.22
73245;BME280;61460;41.158;-73.238;2023-05-10T10:37:44;102069.01;;;23.69;40.22
73245;BME280;61460;41.158;-73.238;2023-05-10T10:42:45;102072.35;;;23.59;40.12
73245;BME280;61460;41.158;-73.238;2023-05-10T10:45:12;102075.50;;;23.68;39.83
73245;BME280;61460;41.158;-73.238;2023-05-10T10:47:42;102073.34;;;23.55;39.98
73245;BME280;61460;41.158;-73.238;2023-05-10T10:50:13;102076.45;;;23.59;39.92
73245;BME280;61460;41.158;-73.238;2023-05-10T10:52:44;102081.62;;;23.53;39.84
73245;BME280;61460;41.158;-73.238;2023-05-10T10:55:15;102092.08;;;23.54;39.75
73245;BME280;61460;41.158;-73.238;2023-05-10T10:57:46;102091.80;;;23.62;39.66
73245;BME280;61460;41.158;-73.238;2023-05-10T11:00:21;102092.23;;;23.67;39.57
73245;BME280;61460;41.158;-73.238;2023-05-10T11:02:47;102089.55;;;23.57;40.12
73245;BME280;61460;41.158;-73.238;2023-05-10T11:05:24;102095.01;;;23.59;39.97
73245;BME280;61460;41.158;-73.238;2023-05-10T11:07:51;102098.73;;;23.57;40.03
73245;BME280;61460;41.158;-73.238;2023-05-10T11:10:19;102101.43;;;23.56;40.14
73245;BME280;61460;41.158;-73.238;2023-05-10T11:12:52;102105.61;;;23.66;40.20
73245;BME280;61460;41.158;-73.238;2023-05-10T11:15:17;102109.34;;;23.77;39.54
73245;BME280;61460;41.158;-73.238;2023-05-10T11:17:49;102115.67;;;23.82;39.40
73245;BME280;61460;41.158;-73.238;2023-05-10T11:20:19;102116.98;;;23.95;38.86
73245;BME280;61460;41.158;-73.238;2023-05-10T11:22:50;102115.84;;;23.83;39.00
73245;BME280;61460;41.158;-73.238;2023-05-10T11:25:26;102115.37;;;23.86;39.28
73245;BME280;61460;41.158;-73.238;2023-05-10T11:27:51;102116.90;;;23.94;39.00
73245;BME280;61460;41.158;-73.238;2023-05-10T11:30:22;102116.73;;;23.93;39.49
73245;BME280;61460;41.158;-73.238;2023-05-10T11:32:52;102115.43;;;24.02;39.51
73245;BME280;61460;41.158;-73.238;2023-05-10T11:35:22;102113.52;;;24.13;39.38
73245;BME280;61460;41.158;-73.238;2023-05-10T11:37:53;102115.50;;;24.12;39.68
73245;BME280;61460;41.158;-73.238;2023-05-10T11:40:23;102114.80;;;24.17;40.00
73245;BME280;61460;41.158;-73.238;2023-05-10T11:42:56;102113.25;;;24.28;39.84
73245;BME280;61460;41.158;-73.238;2023-05-10T11:45:24;102110.64;;;24.29;38.95
73245;BME280;61460;41.158;-73.238;2023-05-10T11:47:54;102110.19;;;24.35;38.88
73245;BME280;61460;41.158;-73.238;2023-05-10T11:50:25;102109.46;;;24.35;38.47
73245;BME280;61460;41.158;-73.238;2023-05-10T11:52:56;102117.27;;;24.36;38.45
73245;BME280;61460;41.158;-73.238;2023-05-10T11:55:25;102117.42;;;24.33;38.40
73245;BME280;61460;41.158;-73.238;2023-05-10T11:58:00;102120.11;;;24.36;38.22
73245;BME280;61460;41.158;-73.238;2023-05-10T12:00:27;102120.17;;;24.32;38.06
73245;BME280;61460;41.158;-73.238;2023-05-10T12:02:57;102119.26;;;24.31;38.03
73245;BME280;61460;41.158;-73.238;2023-05-10T12:05:32;102117.07;;;24.30;38.09
73245;BME280;61460;41.158;-73.238;2023-05-10T12:10:29;102119.46;;;24.32;37.93
73245;BME280;61460;41.158;-73.238;2023-05-10T12:12:59;102117.03;;;24.31;37.77
73245;BME280;61460;41.158;-73.238;2023-05-10T12:15:30;102129.53;;;24.30;37.94
73245;BME280;61460;41.158;-73.238;2023-05-10T12:18:00;102126.36;;;24.28;37.98
73245;BME280;61460;41.158;-73.238;2023-05-10T12:20:31;102126.50;;;24.29;37.80
73245;BME280;61460;41.158;-73.238;2023-05-10T12:23:02;102128.78;;;24.32;37.86
73245;BME280;61460;41.158;-73.238;2023-05-10T12:25:33;102133.52;;;24.32;37.79
73245;BME280;61460;41.158;-73.238;2023-05-10T12:28:04;102132.23;;;24.33;37.82
73245;BME280;61460;41.158;-73.238;2023-05-10T12:30:33;102132.99;;;24.32;37.93
73245;BME280;61460;41.158;-73.238;2023-05-10T12:33:08;102128.95;;;24.36;37.83
73245;BME280;61460;41.158;-73.238;2023-05-10T12:35:33;102130.32;;;24.40;37.71
73245;BME280;61460;41.158;-73.238;2023-05-10T12:40:33;102130.22;;;24.39;37.65
73245;BME280;61460;41.158;-73.238;2023-05-10T12:43:03;102134.30;;;24.38;37.57
73245;BME280;61460;41.158;-73.238;2023-05-10T12:45:34;102137.45;;;24.40;37.61
73245;BME280;61460;41.158;-73.238;2023-05-10T12:48:05;102141.68;;;24.42;37.52
73245;BME280;61460;41.158;-73.238;2023-05-10T12:50:35;102140.32;;;24.41;37.41
73245;BME280;61460;41.158;-73.238;2023-05-10T12:53:06;102143.50;;;24.44;37.37
73245;BME280;61460;41.158;-73.238;2023-05-10T12:55:36;102146.81;;;24.50;37.24
73245;BME280;61460;41.158;-73.238;2023-05-10T12:58:06;102145.32;;;24.46;37.32
73245;BME280;61460;41.158;-73.238;2023-05-10T13:00:37;102149.56;;;24.47;37.31
73245;BME280;61460;41.158;-73.238;2023-05-10T13:03:08;102150.19;;;24.54;37.09